Time;durP1;ratioP1;P1;durP2;ratioP2;P2;SDS_P1;SDS_P2;PMS_P1;PMS_P2;Temp;Humidity;BMP_temperature;BMP_pressure;BME280_temperature;BME280_humidity;BME280_pressure;Samples;Min_cycle;Max_cycle;Signal;HPM_P1;HPM_P2
2020/12/23 00:00:54;;;;;;;4.85;1.50;;;;;;;6.99;88.29;100735.81;1711141;82;21249;-77
2020/12/23 00:03:20;;;;;;;6.75;1.85;;;;;;;6.94;88.27;100742.66;1698060;83;21185;-77
2020/12/23 00:05:47;;;;;;;7.25;2.30;;;;;;;6.89;88.24;100721.23;1717109;83;21173;-77
2020/12/23 00:08:13;;;;;;;9.20;2.95;;;;;;;6.80;88.11;100712.23;1717145;83;21169;-77
2020/12/23 00:10:39;;;;;;;8.88;2.72;;;;;;;6.75;88.13;100716.55;1694809;83;21239;-77
2020/12/23 00:13:06;;;;;;;8.33;2.47;;;;;;;6.70;88.11;100711.83;1688376;84;21226;-77
2020/12/23 00:15:32;;;;;;;12.07;3.15;;;;;;;6.65;88.17;100687.41;1703899;81;21552;-77
2020/12/23 00:17:58;;;;;;;8.68;2.80;;;;;;;6.57;88.03;100675.84;1711159;83;21229;-77
2020/12/23 00:20:25;;;;;;;5.53;3.17;;;;;;;6.51;88.08;100677.54;1690748;83;21182;-77
2020/12/23 00:22:51;;;;;;;10.43;3.87;;;;;;;6.46;88.08;100682.67;1697360;83;21706;-77
2020/12/23 00:25:17;;;;;;;12.25;3.50;;;;;;;6.40;88.00;100684.37;1688810;83;22113;-78
2020/12/23 00:27:44;;;;;;;9.68;3.35;;;;;;;6.34;88.03;100685.63;1688151;84;21568;-78
2020/12/23 00:30:10;;;;;;;12.13;3.87;;;;;;;6.29;88.06;100688.19;1707670;82;21173;-77
2020/12/23 00:32:36;;;;;;;9.83;3.87;;;;;;;6.24;88.08;100702.30;1711003;83;21197;-77
2020/12/23 00:35:03;;;;;;;19.27;4.70;;;;;;;6.20;88.02;100710.02;1689183;83;21642;-77
2020/12/23 00:37:29;;;;;;;8.35;3.30;;;;;;;6.15;87.98;100700.16;1704615;83;21189;-77
2020/12/23 00:39:55;;;;;;;10.50;3.60;;;;;;;6.10;88.00;100706.98;1700449;82;21201;-77
2020/12/23 00:42:23;;;;;;;13.83;3.83;;;;;;;6.06;88.04;100723.23;1689433;84;22219;-77
2020/12/23 00:44:49;;;;;;;;;;;;;;;6.04;88.14;100718.09;1691727;84;21193;-77
2020/12/23 00:47:15;;;;;;;10.08;3.45;;;;;;;6.01;88.04;100719.78;1689881;83;21174;-77
2020/12/23 00:49:41;;;;;;;10.50;3.05;;;;;;;5.96;88.02;100728.75;1705552;83;21189;-77
2020/12/23 00:52:08;;;;;;;11.30;4.08;;;;;;;5.93;88.11;100735.14;1718008;83;21166;-77
2020/12/23 00:54:35;;;;;;;8.73;3.62;;;;;;;5.92;88.16;100729.16;1734574;82;21198;-77
2020/12/23 00:57:01;;;;;;;10.80;3.40;;;;;;;5.90;88.09;100740.27;1722674;82;21164;-77
2020/12/23 00:59:28;;;;;;;10.20;3.17;;;;;;;5.86;88.05;100739.36;1718113;83;21878;-77
2020/12/23 01:02:00;;;;;;;10.00;3.77;;;;;;;5.84;88.02;100736.34;1706928;83;21209;-77
2020/12/23 01:04:27;;;;;;;10.03;3.95;;;;;;;5.79;88.01;100733.75;1710690;83;21249;-77
2020/12/23 01:06:53;;;;;;;14.10;5.22;;;;;;;5.77;88.02;100750.84;1717840;83;21205;-77
2020/12/23 01:09:20;;;;;;;9.25;3.80;;;;;;;5.72;87.99;100751.70;1718155;83;21194;-77
2020/12/23 01:11:48;;;;;;;11.55;4.05;;;;;;;5.70;88.04;100755.55;1710759;82;23241;-77
2020/12/23 01:14:17;;;;;;;11.48;4.28;;;;;;;5.67;87.98;100757.23;1695218;82;21173;-77
2020/12/23 01:16:43;;;;;;;17.73;4.70;;;;;;;5.62;87.94;100770.89;1718124;83;21185;-78
2020/12/23 01:19:10;;;;;;;15.98;5.17;;;;;;;5.58;87.96;100768.29;1715001;83;28282;-78
2020/12/23 01:21:36;;;;;;;13.32;4.37;;;;;;;5.57;87.99;100767.86;1695204;82;21603;-78
2020/12/23 01:24:02;;;;;;;14.70;5.47;;;;;;;5.53;87.91;100760.98;1689226;84;21225;-78
2020/12/23 01:26:28;;;;;;;10.72;5.08;;;;;;;5.50;87.93;100763.11;1697516;83;22093;-78
2020/12/23 01:28:55;;;;;;;11.03;4.40;;;;;;;5.48;87.88;100771.63;1699660;82;21698;-78
2020/12/23 01:31:21;;;;;;;11.90;5.20;;;;;;;5.46;87.91;100771.63;1696498;83;21464;-78
2020/12/23 01:33:47;;;;;;;12.82;5.30;;;;;;;5.45;87.91;100772.89;1716351;83;21583;-78
2020/12/23 01:36:14;;;;;;;17.67;5.67;;;;;;;5.44;87.93;100777.59;1702388;83;21418;-78
2020/12/23 01:38:40;;;;;;;10.48;4.55;;;;;;;5.41;87.88;100778.42;1701783;81;21197;-78
2020/12/23 01:41:06;;;;;;;17.57;6.35;;;;;;;5.41;87.97;100781.41;1742093;82;21191;-78
2020/12/23 01:43:33;;;;;;;10.90;5.12;;;;;;;5.41;87.96;100775.00;1697776;83;21170;-78
2020/12/23 01:46:00;;;;;;;;;;;;;;;5.41;87.98;100776.28;1691668;84;21185;-78
2020/12/23 01:48:31;;;;;;;20.10;5.60;;;;;;;5.40;87.98;100777.13;1692019;83;21240;-78
2020/12/23 01:51:01;;;;;;;15.80;6.20;;;;;;;5.36;87.91;100781.38;1712983;82;21599;-78
2020/12/23 01:53:27;;;;;;;19.17;5.62;;;;;;;5.33;87.92;100781.34;1700853;82;21125;-78
2020/12/23 01:55:59;;;;;;;22.87;5.90;;;;;;;5.31;87.98;100774.06;1732222;82;21126;-78
2020/12/23 01:58:25;;;;;;;19.40;6.47;;;;;;;5.31;87.98;100765.09;1666962;84;21145;-78
2020/12/23 02:00:51;;;;;;;10.68;5.47;;;;;;;5.31;88.09;100759.97;1690657;84;21226;-78
2020/12/23 02:03:20;;;;;;;15.60;6.72;;;;;;;5.30;88.01;100757.83;1702834;83;21141;-78
2020/12/23 02:05:47;;;;;;;16.77;5.67;;;;;;;5.29;88.01;100753.55;1711819;83;21135;-78
2020/12/23 02:08:13;;;;;;;13.68;6.42;;;;;;;5.30;88.02;100756.97;1719343;83;21117;-78
2020/12/23 02:10:39;;;;;;;13.75;6.47;;;;;;;5.29;88.04;100753.97;1719669;83;21088;-78
2020/12/23 02:13:06;;;;;;;17.82;5.80;;;;;;;5.29;88.04;100760.38;1697865;83;21560;-78
2020/12/23 02:15:32;;;;;;;15.40;6.25;;;;;;;5.28;88.07;100759.94;1689752;84;21216;-78
2020/12/23 02:17:58;;;;;;;10.40;5.45;;;;;;;5.27;88.07;100766.77;1690031;83;21237;-78
2020/12/23 02:20:25;;;;;;;13.50;5.10;;;;;;;5.26;88.00;100764.20;1696352;83;21188;-78
2020/12/23 02:22:51;;;;;;;13.58;5.92;;;;;;;5.23;87.94;100765.45;1689338;84;21246;-78
2020/12/23 02:25:18;;;;;;;18.80;5.78;;;;;;;5.22;88.02;100762.03;1689350;84;22311;-78
2020/12/23 02:27:44;;;;;;;11.22;5.35;;;;;;;5.20;88.00;100757.77;1690961;83;21560;-78
2020/12/23 02:30:12;;;;;;;11.60;5.85;;;;;;;5.17;87.95;100757.33;1688433;83;21217;-78
2020/12/23 02:32:38;;;;;;;13.10;6.08;;;;;;;5.13;87.91;100756.86;1695922;83;21192;-78
2020/12/23 02:35:09;;;;;;;22.07;6.28;;;;;;;5.11;87.95;100750.00;1692470;83;21193;-78
2020/12/23 02:37:35;;;;;;;12.13;5.58;;;;;;;5.07;87.92;100745.70;1705778;83;21205;-78
2020/12/23 02:40:01;;;;;;;16.77;5.60;;;;;;;5.02;87.87;100749.92;1704630;81;21397;-78
2020/12/23 02:42:27;;;;;;;16.20;7.17;;;;;;;4.97;87.89;100752.02;1687986;83;21213;-78
2020/12/23 02:44:57;;;;;;;15.60;5.95;;;;;;;4.93;87.90;100753.27;1688295;83;21214;-77
2020/12/23 02:47:23;;;;;;;21.12;7.03;;;;;;;4.89;87.86;100754.08;1694486;81;21205;-77
2020/12/23 02:49:50;;;;;;;20.90;8.18;;;;;;;4.83;87.78;100761.70;1715778;81;21646;-77
2020/12/23 02:52:16;;;;;;;18.05;7.67;;;;;;;4.76;87.80;100762.06;1715979;82;21182;-77
2020/12/23 02:54:42;;;;;;;24.80;8.00;;;;;;;4.72;87.83;100760.31;1705576;82;21181;-77
2020/12/23 02:57:09;;;;;;;19.02;9.55;;;;;;;4.67;87.83;100777.37;1704232;83;21173;-77
2020/12/23 02:59:35;;;;;;;27.00;9.20;;;;;;;4.62;87.87;100779.87;1717103;83;21705;-77
2020/12/23 03:02:02;;;;;;;25.20;8.93;;;;;;;4.56;87.84;100782.80;1735286;82;22002;-77
2020/12/23 03:04:29;;;;;;;17.15;7.67;;;;;;;4.52;87.85;100783.19;1713986;82;21210;-77
2020/12/23 03:06:55;;;;;;;15.25;7.45;;;;;;;4.47;87.90;100779.70;1717076;83;21158;-77
2020/12/23 03:09:22;;;;;;;21.25;7.75;;;;;;;4.43;87.84;100776.67;1717269;83;21161;-77
2020/12/23 03:11:48;;;;;;;13.55;6.60;;;;;;;4.38;87.86;100774.91;1717207;83;26656;-77
2020/12/23 03:14:14;;;;;;;21.80;7.85;;;;;;;4.33;87.86;100785.95;1707301;82;21181;-77
2020/12/23 03:16:41;;;;;;;14.38;6.70;;;;;;;4.29;87.92;100782.91;1716998;83;21177;-77
2020/12/23 03:19:07;;;;;;;16.50;7.42;;;;;;;4.27;87.93;100779.89;1714389;83;21178;-77
2020/12/23 03:21:34;;;;;;;14.13;6.55;;;;;;;4.23;87.92;100780.70;1688111;83;21206;-77
2020/12/23 03:24:00;;;;;;;14.07;6.40;;;;;;;4.20;87.94;100766.58;1689330;83;21225;-77
2020/12/23 03:26:26;;;;;;;12.05;6.55;;;;;;;4.18;87.96;100770.40;1694498;83;21229;-77
2020/12/23 03:28:53;;;;;;;18.37;6.97;;;;;;;4.13;87.86;100778.89;1687987;84;21241;-77
2020/12/23 03:31:20;;;;;;;15.40;6.72;;;;;;;4.01;87.72;100779.59;1688149;84;21209;-77
2020/12/23 03:33:47;;;;;;;14.40;6.67;;;;;;;3.97;87.78;100772.30;1708577;82;21185;-77
2020/12/23 03:36:13;;;;;;;16.55;7.83;;;;;;;3.92;87.79;100776.48;1688322;83;21221;-77
2020/12/23 03:38:39;;;;;;;13.18;7.08;;;;;;;3.89;87.91;100776.86;1716404;81;21262;-77
2020/12/23 03:41:06;;;;;;;19.35;8.43;;;;;;;3.85;87.91;100778.52;1749689;81;21202;-77
2020/12/23 03:43:33;;;;;;;23.52;9.48;;;;;;;3.83;87.94;100776.78;1711946;81;24760;-78
2020/12/23 03:45:59;;;;;;;22.90;10.60;;;;;;;3.78;87.88;100769.45;1704036;83;21231;-77
2020/12/23 03:50:54;;;;;;;19.92;8.65;;;;;;;3.72;87.80;100791.97;1833701;78;28723;-77
2020/12/23 03:53:20;;;;;;;26.62;9.65;;;;;;;3.64;87.81;100803.78;1805531;79;21481;-77
2020/12/23 03:55:46;;;;;;;;;;;;;;;3.59;87.74;100797.77;1808381;79;21477;-77
2020/12/23 03:58:13;;;;;;;21.73;9.10;;;;;;;3.53;87.74;100805.34;1804407;79;20303;-77
2020/12/23 04:00:39;;;;;;;18.85;9.83;;;;;;;3.50;87.82;100804.02;1805622;79;21044;-77
2020/12/23 04:03:06;;;;;;;20.23;10.05;;;;;;;3.46;87.89;100804.80;1807968;79;21184;-78
2020/12/23 04:05:32;;;;;;;18.95;9.85;;;;;;;3.44;87.89;100797.53;1807363;79;21192;-78
2020/12/23 04:07:59;;;;;;;18.92;9.10;;;;;;;3.40;87.84;100798.31;1805467;79;22161;-78
2020/12/23 04:10:25;;;;;;;18.17;9.33;;;;;;;3.35;87.81;100796.95;1805521;79;21028;-78
2020/12/23 04:12:51;;;;;;;;;;;;;;;3.30;87.79;100789.64;1807763;79;21021;-78
2020/12/23 04:15:18;;;;;;;24.23;11.00;;;;;;;3.27;87.82;100775.53;1806375;77;20246;-78
2020/12/23 04:17:44;;;;;;;24.60;10.50;;;;;;;3.24;87.85;100771.23;1807214;77;21624;-78
2020/12/23 04:20:10;;;;;;;19.57;7.97;;;;;;;3.20;87.79;100771.16;1799426;79;21190;-78
2020/12/23 04:22:37;;;;;;;11.05;6.10;;;;;;;3.16;87.82;100766.83;1805050;79;21174;-78
2020/12/23 04:25:07;;;;;;;15.55;6.92;;;;;;;3.11;87.81;100765.92;1806871;79;21099;-78
2020/12/23 04:27:37;;;;;;;12.88;6.53;;;;;;;3.09;87.77;100768.87;1807029;79;21100;-78
2020/12/23 04:30:07;;;;;;;11.63;5.85;;;;;;;3.04;87.74;100776.45;1806608;79;21083;-78
2020/12/23 04:32:34;;;;;;;8.45;5.55;;;;;;;2.98;87.71;100781.05;1791582;79;21406;-78
2020/12/23 04:35:05;;;;;;;9.73;5.03;;;;;;;2.92;87.62;100786.04;1775170;80;20992;-78
2020/12/23 04:37:30;;;;;;;10.75;4.97;;;;;;;2.86;87.65;100783.38;1783423;79;20957;-78
2020/12/23 04:39:57;;;;;;;9.23;5.50;;;;;;;2.82;87.71;100789.27;1813607;78;21114;-78
2020/12/23 04:42:23;;;;;;;9.68;4.45;;;;;;;2.76;87.67;100791.70;1806851;79;20897;-79
2020/12/23 04:44:50;;;;;;;9.60;4.45;;;;;;;2.68;87.50;100793.66;1792551;77;21798;-78
2020/12/23 04:47:22;;;;;;;11.68;5.83;;;;;;;2.58;87.42;100796.49;1771068;79;21116;-78
2020/12/23 04:49:54;;;;;;;10.65;4.37;;;;;;;2.51;87.52;100799.34;1790344;78;21123;-79
2020/12/23 04:52:23;;;;;;;9.55;4.58;;;;;;;2.48;87.62;100804.80;1793028;79;21170;-79
2020/12/23 04:54:51;;;;;;;7.92;4.80;;;;;;;2.43;87.60;100808.95;1795906;79;21862;-79
2020/12/23 04:57:18;;;;;;;8.88;4.60;;;;;;;2.38;87.59;100805.44;1795377;79;21497;-79
2020/12/23 04:59:45;;;;;;;13.55;4.90;;;;;;;2.32;87.62;100799.80;1796616;78;21410;-79
2020/12/23 05:02:11;;;;;;;9.13;4.47;;;;;;;2.26;87.59;100796.70;1794660;79;21103;-79
2020/12/23 05:04:37;;;;;;;8.15;4.33;;;;;;;2.19;87.54;100806.34;1795444;79;21107;-79
2020/12/23 05:07:06;;;;;;;7.28;4.20;;;;;;;2.13;87.34;100810.03;1795059;79;21088;-79
2020/12/23 05:09:33;;;;;;;7.58;3.65;;;;;;;2.09;87.66;100818.45;1773169;79;21139;-79
2020/12/23 05:12:00;;;;;;;9.68;4.00;;;;;;;2.08;87.70;100815.45;1795491;79;21135;-79
2020/12/23 05:14:27;;;;;;;;;;;;;;;2.05;87.71;100823.06;1798044;79;21111;-79
2020/12/23 05:16:54;;;;;;;7.65;4.15;;;;;;;2.03;87.64;100830.23;1795340;79;20257;-79
2020/12/23 05:19:21;;;;;;;7.53;3.70;;;;;;;1.98;87.67;100821.20;1794679;79;20978;-79
2020/12/23 05:21:48;;;;;;;7.42;3.65;;;;;;;1.95;87.65;100831.34;1792279;79;21528;-79
2020/12/23 05:24:15;;;;;;;5.12;3.60;;;;;;;1.91;87.67;100829.13;1793939;79;21628;-79
2020/12/23 05:26:45;;;;;;;6.62;3.58;;;;;;;1.86;87.60;100824.34;1793812;79;21171;-79
2020/12/23 05:29:14;;;;;;;3.35;2.52;;;;;;;1.82;87.66;100819.14;1792805;79;21222;-79
2020/12/23 05:31:42;;;;;;;2.77;2.10;;;;;;;1.77;87.62;100819.03;1794635;79;21166;-79
2020/12/23 05:34:09;;;;;;;4.78;2.70;;;;;;;1.73;87.57;100822.75;1793903;79;22100;-79
2020/12/23 05:36:37;;;;;;;;;;;;;;;1.66;87.59;100828.98;1795499;79;21154;-79
2020/12/23 05:39:08;;;;;;;3.83;2.40;;;;;;;1.63;87.62;100831.88;1793456;78;20304;-79
2020/12/23 05:41:36;;;;;;;7.35;2.75;;;;;;;1.61;87.63;100827.15;1771833;79;21174;-79
2020/12/23 05:44:14;;;;;;;5.50;3.22;;;;;;;1.57;87.68;100831.73;1772172;79;21147;-79
2020/12/23 05:46:40;;;;;;;9.55;3.45;;;;;;;1.52;87.56;100832.06;1785365;78;22365;-79
2020/12/23 05:49:10;;;;;;;5.10;2.42;;;;;;;1.49;87.60;100834.53;1766103;79;22432;-79
2020/12/23 05:51:39;;;;;;;4.95;2.58;;;;;;;1.46;87.53;100821.72;1808285;79;21498;-79
2020/12/23 05:54:06;;;;;;;5.50;2.92;;;;;;;1.43;87.57;100828.88;1799837;78;21154;-79
2020/12/23 05:56:38;;;;;;;4.35;2.40;;;;;;;1.38;87.50;100825.77;1796166;79;21147;-79
2020/12/23 05:59:05;;;;;;;9.63;2.90;;;;;;;1.35;87.49;100829.52;1806665;79;21483;-79
2020/12/23 06:01:34;;;;;;;;;;;;;;;1.30;87.53;100837.91;1771614;79;21152;-79
2020/12/23 06:04:13;;;;;;;11.63;2.87;;;;;;;1.27;87.49;100839.09;1808271;79;20468;-79
2020/12/23 06:06:45;;;;;;;5.17;3.12;;;;;;;1.24;87.47;100846.66;1808464;79;21163;-79
2020/12/23 06:09:14;;;;;;;8.65;4.55;;;;;;;1.21;87.54;100848.27;1807355;79;21179;-79
2020/12/23 06:11:47;;;;;;;8.28;3.45;;;;;;;1.19;87.56;100845.69;1797266;79;21064;-79
2020/12/23 06:14:23;;;;;;;5.78;2.50;;;;;;;1.16;87.58;100844.33;1791784;79;22063;-79
2020/12/23 06:17:07;;;;;;;8.30;3.10;;;;;;;1.15;87.62;100842.61;1795717;79;21170;-79
2020/12/23 06:19:38;;;;;;;4.80;3.27;;;;;;;1.16;87.71;100851.11;1800310;79;21159;-79
2020/12/23 06:22:09;;;;;;;5.92;3.70;;;;;;;1.13;87.62;100847.20;1806498;78;21158;-79
2020/12/23 06:24:36;;;;;;;9.93;4.47;;;;;;;1.08;87.58;100845.81;1797213;79;21166;-78
2020/12/23 06:27:06;;;;;;;5.70;4.03;;;;;;;1.07;87.52;100854.27;1806115;79;21174;-78
2020/12/23 06:29:36;;;;;;;7.50;3.25;;;;;;;1.02;87.51;100854.59;1791438;79;21147;-79
2020/12/23 06:32:08;;;;;;;9.20;3.67;;;;;;;0.99;87.49;100846.87;1803305;79;21579;-76
2020/12/23 06:34:38;;;;;;;4.65;2.72;;;;;;;0.97;87.54;100853.61;1808378;79;21469;-76
2020/12/23 06:37:16;;;;;;;2.80;2.15;;;;;;;0.92;87.34;100855.17;1794813;79;21259;-76
2020/12/23 06:39:44;;;;;;;6.15;3.72;;;;;;;0.87;87.43;100856.33;1789840;77;21166;-76
2020/12/23 06:42:16;;;;;;;6.45;3.65;;;;;;;0.89;87.58;100849.59;1789442;79;21202;-77
2020/12/23 06:44:55;;;;;;;10.55;5.65;;;;;;;0.92;87.67;100844.98;1803901;79;21621;-76
2020/12/23 06:47:24;;;;;;;7.85;3.83;;;;;;;0.92;87.59;100847.54;1784223;78;21166;-76
2020/12/23 06:50:00;;;;;;;4.17;3.27;;;;;;;0.90;87.49;100842.81;1793843;78;21233;-76
2020/12/23 06:52:29;;;;;;;5.95;4.40;;;;;;;0.90;87.58;100839.86;1795608;79;21218;-76
2020/12/23 06:55:12;;;;;;;8.38;4.20;;;;;;;0.92;87.50;100844.58;1789942;79;21207;-76
2020/12/23 06:57:46;;;;;;;5.37;3.40;;;;;;;0.93;87.49;100847.58;1793448;79;21159;-76
2020/12/23 07:00:28;;;;;;;7.22;4.10;;;;;;;0.89;87.35;100845.77;1793803;79;21561;-76
2020/12/23 07:03:00;;;;;;;10.63;5.53;;;;;;;0.90;87.43;100861.91;1792251;78;21585;-76
2020/12/23 07:05:40;;;;;;;13.43;7.72;;;;;;;0.91;87.45;100864.50;1787685;79;21174;-76
2020/12/23 07:08:11;;;;;;;14.70;6.70;;;;;;;0.92;87.44;100865.36;1785330;79;21179;-81
2020/12/23 07:10:44;;;;;;;15.32;7.42;;;;;;;0.91;87.39;100864.50;1794064;79;21175;-81
2020/12/23 07:13:20;;;;;;;18.52;9.68;;;;;;;0.89;87.29;100864.00;1791865;78;21182;-79
2020/12/23 07:15:58;;;;;;;18.52;9.25;;;;;;;0.82;87.35;100864.25;1794825;78;21207;-79
2020/12/23 07:18:29;;;;;;;22.52;9.65;;;;;;;0.83;87.46;100862.56;1793810;78;21170;-78
2020/12/23 07:21:04;;;;;;;17.45;9.23;;;;;;;0.87;87.61;100865.64;1762247;81;21218;-78
2020/12/23 07:23:32;;;;;;;16.70;7.28;;;;;;;0.88;87.60;100864.41;1785022;79;21206;-78
2020/12/23 07:26:03;;;;;;;21.73;8.45;;;;;;;0.89;87.53;100866.14;1793803;79;21155;-78
2020/12/23 07:28:40;;;;;;;28.60;10.13;;;;;;;0.92;87.63;100862.41;1793746;79;21198;-78
2020/12/23 07:31:09;;;;;;;31.65;10.15;;;;;;;0.94;87.63;100860.76;1792243;79;21481;-78
2020/12/23 07:33:37;;;;;;;26.20;9.13;;;;;;;0.90;87.37;100860.64;1782902;78;21083;-78
2020/12/23 07:36:04;;;;;;;22.80;9.55;;;;;;;0.84;87.34;100859.20;1788753;79;21460;-78
2020/12/23 07:38:34;;;;;;;23.70;11.00;;;;;;;0.79;87.33;100865.44;1780248;79;21359;-78
2020/12/23 07:41:01;;;;;;;19.52;9.20;;;;;;;0.80;87.49;100867.56;1781997;79;21469;-78
2020/12/23 07:43:28;;;;;;;22.58;11.38;;;;;;;0.81;87.54;100869.30;1773004;78;21127;-78
2020/12/23 07:45:56;;;;;;;23.83;13.20;;;;;;;0.79;87.47;100871.80;1773896;78;21110;-78
2020/12/23 07:48:25;;;;;;;30.25;12.68;;;;;;;0.79;87.58;100870.52;1780597;78;21076;-76
2020/12/23 07:50:54;;;;;;;16.15;10.05;;;;;;;0.85;87.80;100864.73;1774863;78;21105;-78
2020/12/23 07:53:24;;;;;;;17.20;11.12;;;;;;;0.89;87.71;100869.95;1776274;79;21152;-76
2020/12/23 07:55:58;;;;;;;22.42;11.43;;;;;;;0.87;87.56;100866.91;1789450;79;21108;-77
2020/12/23 07:58:25;;;;;;;21.23;10.72;;;;;;;0.88;87.59;100872.05;1789214;78;21104;-77
2020/12/23 08:00:51;;;;;;;21.23;10.48;;;;;;;0.88;87.57;100870.77;1783697;79;21491;-77
2020/12/23 08:03:32;;;;;;;20.20;11.25;;;;;;;0.89;87.64;100868.69;1784384;78;21087;-77
2020/12/23 08:06:11;;;;;;;20.52;11.38;;;;;;;0.94;87.67;100877.30;1768180;79;21408;-76
2020/12/23 08:08:40;;;;;;;20.97;10.60;;;;;;;0.96;87.72;100884.58;1779839;79;21379;-76
2020/12/23 08:11:09;;;;;;;22.77;11.97;;;;;;;1.01;87.70;100887.66;1795063;79;21418;-76
2020/12/23 08:13:35;;;;;;;25.48;11.03;;;;;;;1.00;87.63;100884.25;1794621;79;21089;-76
2020/12/23 08:16:09;;;;;;;19.35;10.15;;;;;;;1.02;87.69;100886.42;1794762;78;21079;-76
2020/12/23 08:18:37;;;;;;;18.57;11.38;;;;;;;1.03;87.60;100883.47;1789436;79;21146;-76
2020/12/23 08:21:17;;;;;;;26.17;11.35;;;;;;;1.04;87.58;100878.83;1744295;82;21139;-76
2020/12/23 08:23:46;;;;;;;24.20;12.07;;;;;;;1.04;87.56;100882.20;1772741;79;21370;-76
2020/12/23 08:26:13;;;;;;;31.15;14.28;;;;;;;1.07;87.64;100882.70;1777363;78;21643;-76
2020/12/23 08:28:42;;;;;;;33.13;14.87;;;;;;;1.12;87.73;100887.09;1784463;79;21493;-76
2020/12/23 08:31:19;;;;;;;34.53;15.63;;;;;;;1.17;87.80;100884.26;1773350;78;21230;-76
2020/12/23 08:33:49;;;;;;;32.28;13.32;;;;;;;1.22;87.78;100881.83;1765104;79;21120;-77
2020/12/23 08:36:15;;;;;;;28.20;13.38;;;;;;;1.27;87.83;100888.77;1780187;78;21505;-76
2020/12/23 08:38:42;;;;;;;23.15;11.95;;;;;;;1.33;87.83;100886.80;1776246;78;27362;-76
2020/12/23 08:41:17;;;;;;;20.72;11.03;;;;;;;1.36;87.71;100890.69;1777062;78;21088;-76
2020/12/23 08:43:48;;;;;;;23.15;11.78;;;;;;;1.36;87.62;100889.42;1785354;78;21516;-77
2020/12/23 08:46:21;;;;;;;16.42;8.50;;;;;;;1.39;87.69;100889.50;1752379;78;21517;-78
2020/12/23 08:48:50;;;;;;;17.92;10.20;;;;;;;1.41;87.64;100893.36;1773172;78;21138;-78
2020/12/23 08:51:21;;;;;;;24.57;9.55;;;;;;;1.45;87.68;100900.25;1773450;78;21434;-78
2020/12/23 08:53:52;;;;;;;25.25;11.22;;;;;;;1.45;87.65;100890.92;1780602;78;21091;-78
2020/12/23 08:56:26;;;;;;;27.67;13.48;;;;;;;1.49;87.73;100902.92;1771581;78;21199;-78
2020/12/23 08:59:03;;;;;;;33.65;16.80;;;;;;;1.52;87.69;100903.41;1783414;78;21218;-78
2020/12/23 09:01:31;;;;;;;25.95;13.38;;;;;;;1.52;87.66;100908.09;1797714;78;21139;-76
2020/12/23 09:04:10;;;;;;;25.95;12.43;;;;;;;1.52;87.65;100911.92;1773474;78;21199;-76
2020/12/23 09:06:47;;;;;;;26.10;14.28;;;;;;;1.54;87.66;100909.00;1778420;78;21434;-76
2020/12/23 09:09:22;;;;;;;37.88;16.50;;;;;;;1.56;87.67;100911.58;1775374;78;21500;-76
2020/12/23 09:11:51;;;;;;;40.85;20.05;;;;;;;1.60;87.82;100901.47;1776681;78;21154;-76
2020/12/23 09:14:38;;;;;;;43.52;18.62;;;;;;;1.68;87.86;100902.08;1767592;78;21199;-76
2020/12/23 09:17:21;;;;;;;35.78;18.55;;;;;;;1.73;87.82;100894.13;1776499;78;21167;-76
2020/12/23 09:20:03;;;;;;;39.92;17.32;;;;;;;1.78;87.86;100881.94;1777289;78;21139;-76
2020/12/23 09:22:45;;;;;;;31.40;15.30;;;;;;;1.86;87.90;100896.15;1764705;78;22210;-77
2020/12/23 09:25:26;;;;;;;32.33;14.40;;;;;;;1.90;87.87;100889.02;1786563;79;21207;-77
2020/12/23 09:27:55;;;;;;;30.80;14.58;;;;;;;1.95;87.93;100883.20;1764787;78;21466;-76
2020/12/23 09:30:43;;;;;;;35.55;16.80;;;;;;;1.99;87.87;100890.09;1778718;79;21155;-76
2020/12/23 09:33:13;;;;;;;39.50;17.80;;;;;;;2.06;87.96;100889.83;1782515;79;22127;-76
2020/12/23 09:35:43;;;;;;;38.08;19.37;;;;;;;2.13;87.99;100884.00;1772039;79;21396;-76
2020/12/23 09:38:23;;;;;;;47.73;23.07;;;;;;;2.21;88.00;100894.37;1793197;79;21544;-76
2020/12/23 09:40:51;;;;;;;54.18;23.18;;;;;;;2.27;88.05;100883.90;1793207;79;21173;-76
2020/12/23 09:43:23;;;;;;;42.73;20.32;;;;;;;2.37;88.15;100884.09;1780138;79;22293;-77
2020/12/23 09:45:51;;;;;;;37.45;17.25;;;;;;;2.44;88.12;100867.67;1782871;79;21199;-77
2020/12/23 09:48:20;;;;;;;39.25;19.00;;;;;;;2.49;87.99;100875.42;1792799;79;21227;-77
2020/12/23 09:50:47;;;;;;;44.53;21.62;;;;;;;2.53;88.04;100872.97;1793693;79;22072;-77
2020/12/23 09:53:14;;;;;;;49.10;24.40;;;;;;;2.61;88.09;100865.02;1789176;78;21712;-77
2020/12/23 09:55:43;;;;;;;50.75;25.40;;;;;;;2.66;88.10;100859.59;1790104;79;21688;-77
2020/12/23 09:58:10;;;;;;;55.45;26.90;;;;;;;2.70;88.14;100859.24;1775339;79;21178;-77
2020/12/23 10:00:37;;;;;;;54.55;27.93;;;;;;;2.80;88.23;100846.23;1765934;79;21776;-77
2020/12/23 10:03:05;;;;;;;54.75;27.15;;;;;;;2.90;88.34;100849.00;1766345;79;21167;-77
2020/12/23 10:05:31;;;;;;;54.90;26.10;;;;;;;3.00;88.38;100851.31;1688267;78;334989;-77
2020/12/23 10:07:59;;;;;;;57.17;27.77;;;;;;;3.12;88.41;100862.17;1700770;82;21171;-77
2020/12/23 10:10:25;;;;;;;56.15;28.38;;;;;;;3.24;88.47;100862.36;1698493;84;21778;-77
2020/12/23 10:12:51;;;;;;;53.20;27.58;;;;;;;3.35;88.50;100857.02;1701418;82;21236;-77
2020/12/23 10:15:18;;;;;;;51.83;27.42;;;;;;;3.46;88.49;100859.34;1694817;84;21193;-77
2020/12/23 10:17:45;;;;;;;55.23;27.55;;;;;;;3.57;88.49;100850.16;1688129;83;21191;-77
2020/12/23 10:20:12;;;;;;;45.73;24.45;;;;;;;3.67;88.50;100843.45;1694063;82;21616;-77
2020/12/23 10:22:38;;;;;;;56.80;25.43;;;;;;;3.79;88.51;100845.34;1686025;84;21223;-77
2020/12/23 10:25:06;;;;;;;;;;;;;;;3.89;88.52;100845.51;1694330;82;21236;-77
2020/12/23 10:27:32;;;;;;;48.90;22.10;;;;;;;3.98;88.54;100845.65;1700263;83;20270;-77
2020/12/23 10:29:59;;;;;;;42.80;21.82;;;;;;;4.09;88.55;100841.09;1695531;82;21122;-77
2020/12/23 10:32:25;;;;;;;42.85;18.45;;;;;;;4.17;88.50;100841.62;1680816;83;21087;-77
2020/12/23 10:34:52;;;;;;;36.40;18.30;;;;;;;4.23;88.50;100841.70;1679568;83;21123;-77
2020/12/23 10:37:19;;;;;;;47.05;19.02;;;;;;;4.32;88.50;100840.96;1697740;84;21144;-77
2020/12/23 10:39:47;;;;;;;41.48;20.25;;;;;;;4.39;88.46;100837.64;1692054;84;21078;-76
2020/12/23 10:42:13;;;;;;;52.65;23.10;;;;;;;4.46;88.44;100834.31;1685993;83;21115;-77
2020/12/23 10:44:40;;;;;;;40.00;18.98;;;;;;;4.54;88.43;100831.85;1707636;82;22103;-77
2020/12/23 10:47:06;;;;;;;35.35;19.32;;;;;;;4.58;88.36;100835.75;1699755;83;21111;-78
2020/12/23 10:49:32;;;;;;;49.65;19.87;;;;;;;4.63;88.34;100829.40;1695192;82;21115;-77
2020/12/23 10:51:59;;;;;;;40.08;19.25;;;;;;;4.71;88.38;100824.33;1692879;82;21138;-78
2020/12/23 10:54:26;;;;;;;38.38;16.75;;;;;;;4.76;88.34;100819.70;1719518;82;21098;-78
2020/12/23 10:56:53;;;;;;;37.40;16.50;;;;;;;4.82;88.31;100818.91;1727831;82;21117;-77
2020/12/23 10:59:20;;;;;;;39.30;15.35;;;;;;;4.85;88.29;100819.80;1683899;83;21409;-77
2020/12/23 11:01:51;;;;;;;37.28;16.40;;;;;;;4.89;88.36;100815.56;1698183;82;21192;-77
2020/12/23 11:04:18;;;;;;;32.23;14.68;;;;;;;4.96;88.31;100813.51;1710622;83;21584;-77
2020/12/23 11:06:50;;;;;;;34.25;15.90;;;;;;;5.01;88.29;100814.41;1710687;83;21119;-77
2020/12/23 11:09:19;;;;;;;32.23;14.73;;;;;;;5.05;88.28;100816.16;1698769;82;21916;-76
2020/12/23 11:11:55;;;;;;;29.15;12.05;;;;;;;5.10;88.29;100825.17;1681943;83;21130;-76
2020/12/23 11:14:22;;;;;;;22.80;7.72;;;;;;;5.13;88.28;100820.94;1711475;82;21692;-76
2020/12/23 11:16:49;;;;;;;;;;;;;;;5.17;88.20;100821.41;1723015;82;21130;-77
2020/12/23 11:19:16;;;;;;;19.05;7.47;;;;;;;5.18;88.19;100819.28;1707736;83;20273;-77
2020/12/23 11:21:42;;;;;;;20.08;7.85;;;;;;;5.20;88.18;100809.04;1700533;83;26513;-77
2020/12/23 11:24:09;;;;;;;22.85;8.00;;;;;;;5.19;88.08;100800.48;1709653;83;21434;-77
2020/12/23 11:26:35;;;;;;;17.32;8.08;;;;;;;5.19;88.09;100805.62;1710399;83;21228;-76
2020/12/23 11:29:03;;;;;;;21.35;8.38;;;;;;;5.20;88.13;100794.48;1708860;83;21219;-76
2020/12/23 11:31:30;;;;;;;19.52;7.50;;;;;;;5.20;88.11;100797.05;1699181;83;21194;-76
2020/12/23 11:33:56;;;;;;;23.55;6.87;;;;;;;5.21;88.11;100795.34;1697726;82;21588;-77
2020/12/23 11:36:23;;;;;;;20.48;7.70;;;;;;;5.20;88.08;100807.30;1683857;83;21182;-77